sensor_id;sensor_type;location;lat;lon;timestamp;pressure;altitude;pressure_sealevel;temperature;humidity
55032;BME280;40928;51.076;7.950;2024-03-23T00:53:53;96238.00;;;6.67;100.00
55032;BME280;40928;51.076;7.950;2024-03-23T00:56:19;96227.19;;;6.45;100.00
55032;BME280;40928;51.076;7.950;2024-03-23T00:58:47;96227.19;;;6.45;100.00
55032;BME280;40928;51.076;7.950;2024-03-23T01:01:13;96224.06;;;6.36;100.00
55032;BME280;40928;51.076;7.950;2024-03-23T01:03:39;96223.50;;;6.34;100.00
55032;BME280;40928;51.076;7.950;2024-03-23T01:06:05;96226.13;;;6.34;100.00
55032;BME280;40928;51.076;7.950;2024-03-23T01:08:30;96211.97;;;6.29;100.00
55032;BME280;40928;51.076;7.950;2024-03-23T01:11:00;96213.59;;;6.30;100.00
55032;BME280;40928;51.076;7.950;2024-03-23T01:13:27;96217.72;;;6.25;100.00
55032;BME280;40928;51.076;7.950;2024-03-23T01:15:54;96212.22;;;6.27;100.00
55032;BME280;40928;51.076;7.950;2024-03-23T01:18:20;96215.19;;;6.31;100.00
55032;BME280;40928;51.076;7.950;2024-03-23T01:20:47;96212.53;;;6.31;100.00
55032;BME280;40928;51.076;7.950;2024-03-23T01:23:13;96214.28;;;6.25;100.00
55032;BME280;40928;51.076;7.950;2024-03-23T01:25:39;96218.75;;;6.24;100.00
55032;BME280;40928;51.076;7.950;2024-03-23T01:28:05;96222.00;;;6.27;100.00
55032;BME280;40928;51.076;7.950;2024-03-23T01:30:35;96217.72;;;6.25;100.00
55032;BME280;40928;51.076;7.950;2024-03-23T01:33:03;96221.06;;;6.21;100.00
55032;BME280;40928;51.076;7.950;2024-03-23T01:35:29;96212.53;;;6.19;100.00
55032;BME280;40928;51.076;7.950;2024-03-23T01:37:54;96212.53;;;6.19;100.00
55032;BME280;40928;51.076;7.950;2024-03-23T01:40:20;96217.63;;;6.20;100.00
55032;BME280;40928;51.076;7.950;2024-03-23T01:43:03;96211.84;;;6.23;100.00
55032;BME280;40928;51.076;7.950;2024-03-23T01:45:30;96204.94;;;6.22;100.00
55032;BME280;40928;51.076;7.950;2024-03-23T01:47:57;96200.09;;;6.19;100.00
55032;BME280;40928;51.076;7.950;2024-03-23T01:50:22;96200.44;;;6.11;100.00
55032;BME280;40928;51.076;7.950;2024-03-23T01:52:50;96201.38;;;6.05;100.00
55032;BME280;40928;51.076;7.950;2024-03-23T01:55:16;96199.19;;;6.02;100.00
55032;BME280;40928;51.076;7.950;2024-03-23T01:57:42;96198.59;;;6.00;100.00
55032;BME280;40928;51.076;7.950;2024-03-23T02:00:08;96201.81;;;6.02;100.00
55032;BME280;40928;51.076;7.950;2024-03-23T02:02:55;96193.06;;;6.01;100.00
55032;BME280;40928;51.076;7.950;2024-03-23T02:05:22;96194.53;;;5.97;100.00
55032;BME280;40928;51.076;7.950;2024-03-23T02:07:47;96191.31;;;5.95;100.00
55032;BME280;40928;51.076;7.950;2024-03-23T02:10:13;96176.19;;;5.95;100.00
55032;BME280;40928;51.076;7.950;2024-03-23T02:12:39;96167.00;;;5.98;100.00
55032;BME280;40928;51.076;7.950;2024-03-23T02:15:05;96176.34;;;6.01;100.00
55032;BME280;40928;51.076;7.950;2024-03-23T02:17:33;96168.72;;;5.92;100.00
55032;BME280;40928;51.076;7.950;2024-03-23T02:20:00;96174.50;;;5.89;100.00
55032;BME280;40928;51.076;7.950;2024-03-23T02:22:35;96169.41;;;5.88;100.00
55032;BME280;40928;51.076;7.950;2024-03-23T02:25:01;96166.66;;;5.83;100.00
55032;BME280;40928;51.076;7.950;2024-03-23T02:27:28;96163.88;;;5.77;100.00
55032;BME280;40928;51.076;7.950;2024-03-23T02:29:53;96163.06;;;5.77;100.00
55032;BME280;40928;51.076;7.950;2024-03-23T02:32:19;96136.91;;;5.69;100.00
55032;BME280;40928;51.076;7.950;2024-03-23T02:34:45;96148.44;;;5.74;100.00
55032;BME280;40928;51.076;7.950;2024-03-23T02:37:11;96156.16;;;5.76;100.00
55032;BME280;40928;51.076;7.950;2024-03-23T02:39:37;96157.19;;;5.75;100.00
55032;BME280;40928;51.076;7.950;2024-03-23T02:42:03;96149.72;;;5.72;100.00
55032;BME280;40928;51.076;7.950;2024-03-23T02:44:28;96148.88;;;5.71;100.00
55032;BME280;40928;51.076;7.950;2024-03-23T02:46:54;96143.94;;;5.63;100.00
55032;BME280;40928;51.076;7.950;2024-03-23T02:49:20;96146.34;;;5.64;100.00
55032;BME280;40928;51.076;7.950;2024-03-23T02:51:47;96142.09;;;5.63;100.00
55032;BME280;40928;51.076;7.950;2024-03-23T02:54:14;96137.72;;;5.57;100.00
55032;BME280;40928;51.076;7.950;2024-03-23T02:56:40;96140.81;;;5.54;100.00
55032;BME280;40928;51.076;7.950;2024-03-23T02:59:05;96144.75;;;5.52;100.00
55032;BME280;40928;51.076;7.950;2024-03-23T03:01:31;96156.56;;;5.49;100.00
55032;BME280;40928;51.076;7.950;2024-03-23T03:03:57;96153.34;;;5.47;100.00
55032;BME280;40928;51.076;7.950;2024-03-23T03:06:25;96143.69;;;5.41;100.00
55032;BME280;40928;51.076;7.950;2024-03-23T03:08:51;96147.81;;;5.37;100.00
55032;BME280;40928;51.076;7.950;2024-03-23T03:11:17;96151.84;;;5.39;100.00
55032;BME280;40928;51.076;7.950;2024-03-23T03:13:43;96147.81;;;5.37;100.00
55032;BME280;40928;51.076;7.950;2024-03-23T03:16:10;96145.50;;;5.28;100.00
55032;BME280;40928;51.076;7.950;2024-03-23T03:18:36;96145.34;;;5.23;100.00
55032;BME280;40928;51.076;7.950;2024-03-23T03:21:02;96142.13;;;5.21;100.00
55032;BME280;40928;51.076;7.950;2024-03-23T03:23:28;96145.31;;;5.11;100.00
55032;BME280;40928;51.076;7.950;2024-03-23T03:29:41;96147.63;;;5.08;100.00
55032;BME280;40928;51.076;7.950;2024-03-23T03:32:07;96160.25;;;5.06;100.00
55032;BME280;40928;51.076;7.950;2024-03-23T03:34:33;96163.59;;;5.01;100.00
55032;BME280;40928;51.076;7.950;2024-03-23T03:36:58;96160.50;;;5.04;100.00
55032;BME280;40928;51.076;7.950;2024-03-23T03:39:25;96158.88;;;5.03;100.00
55032;BME280;40928;51.076;7.950;2024-03-23T03:41:50;96160.19;;;4.82;100.00
55032;BME280;40928;51.076;7.950;2024-03-23T03:44:16;96169.16;;;4.81;100.00
55032;BME280;40928;51.076;7.950;2024-03-23T03:46:42;96164.06;;;4.61;100.00
55032;BME280;40928;51.076;7.950;2024-03-23T03:49:08;96172.41;;;4.64;100.00
55032;BME280;40928;51.076;7.950;2024-03-23T03:51:34;96170.84;;;4.56;100.00
55032;BME280;40928;51.076;7.950;2024-03-23T03:54:00;96163.34;;;4.16;100.00
55032;BME280;40928;51.076;7.950;2024-03-23T03:56:25;96164.06;;;4.05;100.00
55032;BME280;40928;51.076;7.950;2024-03-23T03:58:52;96160.91;;;3.96;100.00
55032;BME280;40928;51.076;7.950;2024-03-23T04:01:18;96162.22;;;4.05;100.00
55032;BME280;40928;51.076;7.950;2024-03-23T04:03:43;96166.06;;;4.09;100.00
55032;BME280;40928;51.076;7.950;2024-03-23T04:06:09;96179.16;;;3.97;100.00
55032;BME280;40928;51.076;7.950;2024-03-23T04:08:35;96171.97;;;3.86;100.00
55032;BME280;40928;51.076;7.950;2024-03-23T04:11:01;96186.00;;;3.87;100.00
55032;BME280;40928;51.076;7.950;2024-03-23T04:13:27;96186.59;;;3.89;100.00
55032;BME280;40928;51.076;7.950;2024-03-23T04:15:56;96182.94;;;3.83;100.00
55032;BME280;40928;51.076;7.950;2024-03-23T04:18:22;96184.19;;;3.80;100.00
55032;BME280;40928;51.076;7.950;2024-03-23T04:20:49;96194.16;;;3.78;100.00
55032;BME280;40928;51.076;7.950;2024-03-23T04:23:14;96169.31;;;3.61;100.00
55032;BME280;40928;51.076;7.950;2024-03-23T04:25:40;96181.84;;;3.72;100.00
55032;BME280;40928;51.076;7.950;2024-03-23T04:28:06;96173.53;;;3.69;100.00
55032;BME280;40928;51.076;7.950;2024-03-23T04:30:32;96178.81;;;3.69;100.00
55032;BME280;40928;51.076;7.950;2024-03-23T04:32:57;96180.66;;;3.68;100.00
55032;BME280;40928;51.076;7.950;2024-03-23T04:35:24;96183.06;;;3.70;100.00
55032;BME280;40928;51.076;7.950;2024-03-23T04:37:53;96197.47;;;3.74;100.00
55032;BME280;40928;51.076;7.950;2024-03-23T04:40:19;96185.75;;;3.63;100.00
55032;BME280;40928;51.076;7.950;2024-03-23T04:42:45;96185.06;;;3.49;100.00
55032;BME280;40928;51.076;7.950;2024-03-23T04:45:10;96197.03;;;3.52;100.00
55032;BME280;40928;51.076;7.950;2024-03-23T04:47:37;96195.56;;;3.56;100.00
55032;BME280;40928;51.076;7.950;2024-03-23T04:50:04;96189.75;;;3.47;100.00
55032;BME280;40928;51.076;7.950;2024-03-23T04:52:30;96193.03;;;3.42;100.00
55032;BME280;40928;51.076;7.950;2024-03-23T04:54:56;96191.78;;;3.45;100.00
55032;BME280;40928;51.076;7.950;2024-03-23T04:57:22;96191.63;;;3.40;100.00
55032;BME280;40928;51.076;7.950;2024-03-23T04:59:48;96210.13;;;3.33;100.00
55032;BME280;40928;51.076;7.950;2024-03-23T05:02:14;96212.59;;;3.28;100.00
55032;BME280;40928;51.076;7.950;2024-03-23T05:04:41;96211.16;;;3.32;100.00
55032;BME280;40928;51.076;7.950;2024-03-23T05:07:07;96216.66;;;3.30;100.00
55032;BME280;40928;51.076;7.950;2024-03-23T05:09:32;96202.03;;;3.34;100.00
55032;BME280;40928;51.076;7.950;2024-03-23T05:11:59;96202.81;;;3.35;100.00
55032;BME280;40928;51.076;7.950;2024-03-23T05:14:28;96198.56;;;3.34;100.00
55032;BME280;40928;51.076;7.950;2024-03-23T05:16:54;96197.72;;;3.40;100.00
55032;BME280;40928;51.076;7.950;2024-03-23T05:19:20;96198.69;;;3.46;100.00
55032;BME280;40928;51.076;7.950;2024-03-23T05:21:45;96208.00;;;3.48;100.00
55032;BME280;40928;51.076;7.950;2024-03-23T05:24:11;96204.34;;;3.49;100.00
55032;BME280;40928;51.076;7.950;2024-03-23T05:26:37;96212.72;;;3.40;100.00
55032;BME280;40928;51.076;7.950;2024-03-23T05:29:03;96221.03;;;3.43;100.00
55032;BME280;40928;51.076;7.950;2024-03-23T05:31:32;96220.41;;;3.48;100.00
55032;BME280;40928;51.076;7.950;2024-03-23T05:33:57;96216.53;;;3.50;100.00
55032;BME280;40928;51.076;7.950;2024-03-23T05:36:23;96219.75;;;3.53;100.00
55032;BME280;40928;51.076;7.950;2024-03-23T05:38:52;96219.16;;;3.50;100.00
55032;BME280;40928;51.076;7.950;2024-03-23T05:41:17;96205.16;;;3.50;100.00
55032;BME280;40928;51.076;7.950;2024-03-23T05:43:43;96201.88;;;3.55;100.00
55032;BME280;40928;51.076;7.950;2024-03-23T05:46:09;96203.53;;;3.49;100.00
55032;BME280;40928;51.076;7.950;2024-03-23T05:48:35;96201.94;;;3.48;100.00
55032;BME280;40928;51.076;7.950;2024-03-23T05:51:01;96203.16;;;3.45;100.00
55032;BME280;40928;51.076;7.950;2024-03-23T05:53:27;96209.03;;;3.47;100.00
55032;BME280;40928;51.076;7.950;2024-03-23T05:56:03;96206.88;;;3.31;100.00
55032;BME280;40928;51.076;7.950;2024-03-23T05:58:32;96206.09;;;3.30;100.00
55032;BME280;40928;51.076;7.950;2024-03-23T06:00:59;96208.97;;;3.22;100.00
55032;BME280;40928;51.076;7.950;2024-03-23T06:03:28;96213.03;;;3.25;100.00
55032;BME280;40928;51.076;7.950;2024-03-23T06:05:54;96209.19;;;3.20;100.00
55032;BME280;40928;51.076;7.950;2024-03-23T06:08:20;96201.88;;;3.23;100.00
55032;BME280;40928;51.076;7.950;2024-03-23T06:10:46;96211.28;;;3.12;100.00
55032;BME280;40928;51.076;7.950;2024-03-23T06:13:13;96208.63;;;3.12;100.00
55032;BME280;40928;51.076;7.950;2024-03-23T06:15:39;96212.66;;;3.14;100.00
55032;BME280;40928;51.076;7.950;2024-03-23T06:18:05;96224.44;;;3.18;100.00
55032;BME280;40928;51.076;7.950;2024-03-23T06:20:31;96227.50;;;3.09;100.00
55032;BME280;40928;51.076;7.950;2024-03-23T06:22:57;96232.41;;;3.05;100.00
55032;BME280;40928;51.076;7.950;2024-03-23T06:25:23;96227.97;;;2.99;100.00
55032;BME280;40928;51.076;7.950;2024-03-23T06:27:48;96219.44;;;3.03;100.00
55032;BME280;40928;51.076;7.950;2024-03-23T06:30:14;96214.63;;;2.94;100.00
55032;BME280;40928;51.076;7.950;2024-03-23T06:32:40;96213.41;;;2.89;100.00
55032;BME280;40928;51.076;7.950;2024-03-23T06:35:06;96207.88;;;2.98;100.00
55032;BME280;40928;51.076;7.950;2024-03-23T06:37:35;96211.69;;;3.09;100.00
55032;BME280;40928;51.076;7.950;2024-03-23T06:40:01;96214.94;;;3.11;100.00
55032;BME280;40928;51.076;7.950;2024-03-23T06:42:26;96223.22;;;3.14;100.00
55032;BME280;40928;51.076;7.950;2024-03-23T06:44:52;96216.94;;;3.15;100.00
55032;BME280;40928;51.076;7.950;2024-03-23T06:47:19;96227.44;;;3.22;100.00
55032;BME280;40928;51.076;7.950;2024-03-23T06:49:46;96222.56;;;3.26;100.00
55032;BME280;40928;51.076;7.950;2024-03-23T06:52:12;96227.59;;;3.34;100.00
55032;BME280;40928;51.076;7.950;2024-03-23T06:54:38;96233.66;;;3.41;100.00
55032;BME280;40928;51.076;7.950;2024-03-23T06:57:04;96233.25;;;3.38;100.00
55032;BME280;40928;51.076;7.950;2024-03-23T06:59:29;96242.63;;;3.33;100.00
55032;BME280;40928;51.076;7.950;2024-03-23T07:01:55;96235.50;;;3.34;100.00
55032;BME280;40928;51.076;7.950;2024-03-23T07:04:21;96244.44;;;3.33;100.00
55032;BME280;40928;51.076;7.950;2024-03-23T07:06:46;96249.53;;;3.34;100.00
55032;BME280;40928;51.076;7.950;2024-03-23T07:09:12;96248.28;;;3.37;100.00
55032;BME280;40928;51.076;7.950;2024-03-23T07:11:38;96250.88;;;3.44;100.00
55032;BME280;40928;51.076;7.950;2024-03-23T07:14:03;96254.75;;;3.41;100.00
55032;BME280;40928;51.076;7.950;2024-03-23T07:16:29;96259.44;;;3.39;100.00
55032;BME280;40928;51.076;7.950;2024-03-23T07:18:55;96262.44;;;3.43;100.00
55032;BME280;40928;51.076;7.950;2024-03-23T07:21:21;96268.34;;;3.45;100.00
55032;BME280;40928;51.076;7.950;2024-03-23T07:23:47;96266.28;;;3.47;100.00
55032;BME280;40928;51.076;7.950;2024-03-23T07:26:13;96263.06;;;3.45;100.00
55032;BME280;40928;51.076;7.950;2024-03-23T07:28:40;96273.44;;;3.40;100.00
55032;BME280;40928;51.076;7.950;2024-03-23T07:31:11;96270.19;;;3.38;100.00
55032;BME280;40928;51.076;7.950;2024-03-23T07:33:41;96264.53;;;3.34;100.00
55032;BME280;40928;51.076;7.950;2024-03-23T07:36:07;96280.78;;;3.31;100.00
55032;BME280;40928;51.076;7.950;2024-03-23T07:38:32;96280.19;;;3.29;100.00
55032;BME280;40928;51.076;7.950;2024-03-23T07:41:08;96283.28;;;3.19;100.00
55032;BME280;40928;51.076;7.950;2024-03-23T07:43:35;96292.38;;;3.23;100.00
55032;BME280;40928;51.076;7.950;2024-03-23T07:46:01;96307.88;;;3.06;100.00
55032;BME280;40928;51.076;7.950;2024-03-23T07:48:29;96296.38;;;2.94;100.00
55032;BME280;40928;51.076;7.950;2024-03-23T07:53:29;96302.63;;;3.06;100.00
55032;BME280;40928;51.076;7.950;2024-03-23T07:56:08;96305.84;;;3.08;100.00
55032;BME280;40928;51.076;7.950;2024-03-23T07:58:36;96301.59;;;3.07;100.00
55032;BME280;40928;51.076;7.950;2024-03-23T08:01:06;96299.13;;;3.19;100.00
55032;BME280;40928;51.076;7.950;2024-03-23T08:03:39;96295.25;;;3.22;100.00
55032;BME280;40928;51.076;7.950;2024-03-23T08:08:36;96303.09;;;3.35;100.00
55032;BME280;40928;51.076;7.950;2024-03-23T08:11:02;96308.13;;;3.43;100.00
55032;BME280;40928;51.076;7.950;2024-03-23T08:13:29;96307.06;;;3.51;100.00
55032;BME280;40928;51.076;7.950;2024-03-23T08:15:59;96296.31;;;3.53;100.00
55032;BME280;40928;51.076;7.950;2024-03-23T08:18:25;96301.66;;;3.78;100.00
55032;BME280;40928;51.076;7.950;2024-03-23T08:23:27;96305.59;;;4.19;100.00
55032;BME280;40928;51.076;7.950;2024-03-23T08:26:04;96308.44;;;4.24;100.00
55032;BME280;40928;51.076;7.950;2024-03-23T08:28:30;96301.28;;;4.25;100.00
55032;BME280;40928;51.076;7.950;2024-03-23T08:30:56;96298.75;;;4.37;100.00
55032;BME280;40928;51.076;7.950;2024-03-23T08:33:23;96301.00;;;4.59;100.00
55032;BME280;40928;51.076;7.950;2024-03-23T08:36:01;96294.25;;;4.81;100.00
55032;BME280;40928;51.076;7.950;2024-03-23T08:38:28;96290.06;;;4.92;100.00
55032;BME280;40928;51.076;7.950;2024-03-23T08:41:01;96288.53;;;5.03;100.00
55032;BME280;40928;51.076;7.950;2024-03-23T08:43:35;96291.09;;;4.91;100.00
55032;BME280;40928;51.076;7.950;2024-03-23T08:46:11;96295.72;;;5.14;100.00
55032;BME280;40928;51.076;7.950;2024-03-23T08:48:39;96298.44;;;5.26;100.00
55032;BME280;40928;51.076;7.950;2024-03-23T08:51:07;96294.97;;;5.26;100.00
55032;BME280;40928;51.076;7.950;2024-03-23T08:53:34;96294.00;;;5.39;100.00
55032;BME280;40928;51.076;7.950;2024-03-23T08:56:00;96299.28;;;5.69;100.00
55032;BME280;40928;51.076;7.950;2024-03-23T08:58:28;96291.44;;;5.62;100.00
55032;BME280;40928;51.076;7.950;2024-03-23T09:00:55;96306.00;;;5.72;100.00
55032;BME280;40928;51.076;7.950;2024-03-23T09:03:24;96310.28;;;5.85;98.56
55032;BME280;40928;51.076;7.950;2024-03-23T09:05:51;96313.75;;;5.85;96.60
55032;BME280;40928;51.076;7.950;2024-03-23T09:08:18;96306.63;;;5.98;98.57
55032;BME280;40928;51.076;7.950;2024-03-23T09:10:44;96310.19;;;6.22;97.18
55032;BME280;40928;51.076;7.950;2024-03-23T09:13:10;96303.16;;;6.39;99.66
55032;BME280;40928;51.076;7.950;2024-03-23T09:15:45;96307.31;;;6.47;96.03
55032;BME280;40928;51.076;7.950;2024-03-23T09:18:11;96302.25;;;6.34;97.42
55032;BME280;40928;51.076;7.950;2024-03-23T09:20:37;96306.63;;;6.40;98.66
55032;BME280;40928;51.076;7.950;2024-03-23T09:23:03;96306.97;;;6.32;97.80
55032;BME280;40928;51.076;7.950;2024-03-23T09:25:29;96302.44;;;6.32;95.18
55032;BME280;40928;51.076;7.950;2024-03-23T09:27:55;96305.69;;;6.34;94.19
55032;BME280;40928;51.076;7.950;2024-03-23T09:30:20;96306.00;;;6.14;92.94
55032;BME280;40928;51.076;7.950;2024-03-23T09:32:46;96309.97;;;5.93;96.91
55032;BME280;40928;51.076;7.950;2024-03-23T09:35:12;96289.09;;;5.85;96.35
55032;BME280;40928;51.076;7.950;2024-03-23T09:37:39;96293.44;;;5.79;94.45
55032;BME280;40928;51.076;7.950;2024-03-23T09:40:09;96294.97;;;5.75;96.42
55032;BME280;40928;51.076;7.950;2024-03-23T09:42:35;96293.03;;;5.94;98.28
55032;BME280;40928;51.076;7.950;2024-03-23T09:45:01;96293.50;;;6.57;96.14
55032;BME280;40928;51.076;7.950;2024-03-23T09:47:29;96296.88;;;7.05;93.92
55032;BME280;40928;51.076;7.950;2024-03-23T09:49:55;96295.06;;;7.06;91.84
55032;BME280;40928;51.076;7.950;2024-03-23T09:52:20;96295.66;;;6.96;88.87
55032;BME280;40928;51.076;7.950;2024-03-23T09:54:46;96288.38;;;6.91;92.37
55032;BME280;40928;51.076;7.950;2024-03-23T09:57:12;96281.06;;;7.10;91.19
55032;BME280;40928;51.076;7.950;2024-03-23T09:59:39;96283.84;;;7.04;91.09
55032;BME280;40928;51.076;7.950;2024-03-23T10:02:05;96276.59;;;6.99;89.55
55032;BME280;40928;51.076;7.950;2024-03-23T10:04:49;96271.44;;;6.80;92.30
55032;BME280;40928;51.076;7.950;2024-03-23T10:07:19;96285.75;;;6.55;89.61
55032;BME280;40928;51.076;7.950;2024-03-23T10:09:46;96286.06;;;6.23;87.54
55032;BME280;40928;51.076;7.950;2024-03-23T10:12:18;96287.56;;;6.07;89.46
55032;BME280;40928;51.076;7.950;2024-03-23T10:14:44;96281.59;;;6.36;89.69
55032;BME280;40928;51.076;7.950;2024-03-23T10:17:20;96277.00;;;7.49;89.14
55032;BME280;40928;51.076;7.950;2024-03-23T10:19:51;96277.13;;;8.90;84.36
55032;BME280;40928;51.076;7.950;2024-03-23T10:22:18;96270.19;;;8.89;77.95
55032;BME280;40928;51.076;7.950;2024-03-23T10:24:45;96282.63;;;9.01;76.05
55032;BME280;40928;51.076;7.950;2024-03-23T10:27:18;96287.38;;;9.43;74.60
55032;BME280;40928;51.076;7.950;2024-03-23T10:29:48;96287.47;;;10.08;73.94
55032;BME280;40928;51.076;7.950;2024-03-23T10:32:16;96274.88;;;10.69;68.86
55032;BME280;40928;51.076;7.950;2024-03-23T10:34:42;96270.84;;;11.19;66.40
55032;BME280;40928;51.076;7.950;2024-03-23T10:37:09;96273.38;;;10.40;66.45
55032;BME280;40928;51.076;7.950;2024-03-23T10:39:37;96278.66;;;9.75;71.46
55032;BME280;40928;51.076;7.950;2024-03-23T10:42:04;96271.47;;;9.26;71.30
55032;BME280;40928;51.076;7.950;2024-03-23T10:44:31;96273.31;;;9.25;73.03
55032;BME280;40928;51.076;7.950;2024-03-23T10:47:03;96268.09;;;8.91;74.29
55032;BME280;40928;51.076;7.950;2024-03-23T10:49:31;96258.66;;;8.61;75.27
55032;BME280;40928;51.076;7.950;2024-03-23T10:51:58;96264.84;;;8.67;77.49
55032;BME280;40928;51.076;7.950;2024-03-23T10:54:25;96268.72;;;10.30;76.77
55032;BME280;40928;51.076;7.950;2024-03-23T10:59:49;96257.44;;;10.23;70.10
55032;BME280;40928;51.076;7.950;2024-03-23T11:02:19;96260.59;;;10.95;65.86
55032;BME280;40928;51.076;7.950;2024-03-23T11:04:45;96261.06;;;11.46;65.75
55032;BME280;40928;51.076;7.950;2024-03-23T11:07:31;96259.59;;;12.12;59.59
55032;BME280;40928;51.076;7.950;2024-03-23T11:09:58;96258.25;;;13.32;55.16
55032;BME280;40928;51.076;7.950;2024-03-23T11:15:06;96264.22;;;11.37;54.50
55032;BME280;40928;51.076;7.950;2024-03-23T11:20:34;96251.47;;;11.70;54.42
55032;BME280;40928;51.076;7.950;2024-03-23T11:23:00;96256.44;;;10.29;53.99
55032;BME280;40928;51.076;7.950;2024-03-23T11:25:27;96261.88;;;9.80;57.69
55032;BME280;40928;51.076;7.950;2024-03-23T11:27:55;96249.59;;;9.24;59.15
55032;BME280;40928;51.076;7.950;2024-03-23T11:30:23;96264.06;;;8.49;62.49
55032;BME280;40928;51.076;7.950;2024-03-23T11:32:50;96263.97;;;8.27;66.40
55032;BME280;40928;51.076;7.950;2024-03-23T11:38:25;96256.31;;;9.54;68.29
55032;BME280;40928;51.076;7.950;2024-03-23T11:40:54;96258.44;;;10.12;64.75
55032;BME280;40928;51.076;7.950;2024-03-23T11:43:20;96272.34;;;9.86;63.41
55032;BME280;40928;51.076;7.950;2024-03-23T11:45:52;96279.19;;;8.83;62.70
55032;BME280;40928;51.076;7.950;2024-03-23T11:48:21;96310.66;;;8.01;66.48
55032;BME280;40928;51.076;7.950;2024-03-23T11:50:50;96317.81;;;6.66;73.57
55032;BME280;40928;51.076;7.950;2024-03-23T11:53:17;96349.50;;;5.64;81.61
55032;BME280;40928;51.076;7.950;2024-03-23T11:55:52;96336.88;;;4.73;90.98
55032;BME280;40928;51.076;7.950;2024-03-23T11:58:21;96321.22;;;4.71;92.33
55032;BME280;40928;51.076;7.950;2024-03-23T12:01:03;96323.25;;;4.69;90.60
55032;BME280;40928;51.076;7.950;2024-03-23T12:03:31;96318.13;;;4.75;88.48
55032;BME280;40928;51.076;7.950;2024-03-23T12:06:00;96328.06;;;4.79;90.63
55032;BME280;40928;51.076;7.950;2024-03-23T12:08:30;96332.25;;;5.06;90.24
55032;BME280;40928;51.076;7.950;2024-03-23T12:11:12;96340.19;;;5.06;87.83
55032;BME280;40928;51.076;7.950;2024-03-23T12:13:39;96350.50;;;4.95;89.04
55032;BME280;40928;51.076;7.950;2024-03-23T12:16:10;96356.81;;;4.94;90.41
55032;BME280;40928;51.076;7.950;2024-03-23T12:18:37;96355.88;;;4.63;90.05
55032;BME280;40928;51.076;7.950;2024-03-23T12:21:04;96365.22;;;4.08;93.88
55032;BME280;40928;51.076;7.950;2024-03-23T12:23:29;96353.41;;;4.18;96.68
55032;BME280;40928;51.076;7.950;2024-03-23T12:25:55;96356.78;;;4.25;100.00
55032;BME280;40928;51.076;7.950;2024-03-23T12:28:23;96337.69;;;4.23;98.91
55032;BME280;40928;51.076;7.950;2024-03-23T12:30:49;96332.59;;;3.64;97.54
55032;BME280;40928;51.076;7.950;2024-03-23T12:33:15;96320.47;;;3.88;98.92
55032;BME280;40928;51.076;7.950;2024-03-23T12:35:41;96316.22;;;4.13;97.95
55032;BME280;40928;51.076;7.950;2024-03-23T12:38:08;96322.34;;;4.82;99.92
55032;BME280;40928;51.076;7.950;2024-03-23T12:40:33;96315.97;;;5.39;95.22
55032;BME280;40928;51.076;7.950;2024-03-23T12:42:59;96321.50;;;5.56;91.76
55032;BME280;40928;51.076;7.950;2024-03-23T12:45:25;96319.78;;;5.62;91.87
55032;BME280;40928;51.076;7.950;2024-03-23T12:47:50;96321.97;;;5.65;91.70
55032;BME280;40928;51.076;7.950;2024-03-23T12:50:19;96320.47;;;5.69;90.41
55032;BME280;40928;51.076;7.950;2024-03-23T12:52:47;96330.19;;;5.45;91.29
55032;BME280;40928;51.076;7.950;2024-03-23T12:55:13;96321.75;;;5.36;89.49
55032;BME280;40928;51.076;7.950;2024-03-23T12:57:39;96313.72;;;5.24;90.50
55032;BME280;40928;51.076;7.950;2024-03-23T13:00:06;96321.97;;;4.79;89.91
55032;BME280;40928;51.076;7.950;2024-03-23T13:02:34;96325.50;;;4.47;92.33
55032;BME280;40928;51.076;7.950;2024-03-23T13:05:00;96315.75;;;4.48;94.14
55032;BME280;40928;51.076;7.950;2024-03-23T13:07:26;96299.13;;;4.40;92.54
55032;BME280;40928;51.076;7.950;2024-03-23T13:09:52;96304.63;;;4.64;92.54
55032;BME280;40928;51.076;7.950;2024-03-23T13:12:21;96315.78;;;4.85;92.16
55032;BME280;40928;51.076;7.950;2024-03-23T13:14:47;96319.88;;;5.37;90.41
55032;BME280;40928;51.076;7.950;2024-03-23T13:17:13;96315.75;;;5.59;87.80
55032;BME280;40928;51.076;7.950;2024-03-23T13:19:39;96310.84;;;5.26;89.00
55032;BME280;40928;51.076;7.950;2024-03-23T13:22:05;96313.19;;;5.53;87.45
55032;BME280;40928;51.076;7.950;2024-03-23T13:24:31;96322.50;;;5.55;88.30
55032;BME280;40928;51.076;7.950;2024-03-23T13:26:57;96330.13;;;5.63;88.90
55032;BME280;40928;51.076;7.950;2024-03-23T13:29:23;96342.38;;;5.46;89.71
55032;BME280;40928;51.076;7.950;2024-03-23T13:31:51;96353.66;;;5.23;90.93
55032;BME280;40928;51.076;7.950;2024-03-23T13:34:18;96372.88;;;4.93;90.69
55032;BME280;40928;51.076;7.950;2024-03-23T13:36:44;96393.38;;;4.53;91.67
55032;BME280;40928;51.076;7.950;2024-03-23T13:39:15;96383.22;;;4.25;93.69
55032;BME280;40928;51.076;7.950;2024-03-23T13:41:44;96370.94;;;5.25;91.40
55032;BME280;40928;51.076;7.950;2024-03-23T13:44:12;96357.06;;;6.09;89.05
55032;BME280;40928;51.076;7.950;2024-03-23T13:46:39;96357.50;;;6.61;86.74
55032;BME280;40928;51.076;7.950;2024-03-23T13:49:06;96347.66;;;7.09;82.60
55032;BME280;40928;51.076;7.950;2024-03-23T13:51:33;96331.88;;;7.55;80.53
55032;BME280;40928;51.076;7.950;2024-03-23T13:54:02;96325.47;;;7.68;80.20
55032;BME280;40928;51.076;7.950;2024-03-23T13:56:28;96321.13;;;7.50;77.47
55032;BME280;40928;51.076;7.950;2024-03-23T13:58:57;96314.56;;;7.52;79.01
55032;BME280;40928;51.076;7.950;2024-03-23T14:01:23;96313.81;;;7.69;76.30
55032;BME280;40928;51.076;7.950;2024-03-23T14:03:49;96304.78;;;7.70;76.93
55032;BME280;40928;51.076;7.950;2024-03-23T14:06:15;96307.66;;;7.68;74.10
55032;BME280;40928;51.076;7.950;2024-03-23T14:08:40;96296.75;;;7.82;72.93
55032;BME280;40928;51.076;7.950;2024-03-23T14:11:10;96291.84;;;7.90;77.33
55032;BME280;40928;51.076;7.950;2024-03-23T14:13:36;96289.63;;;8.16;76.28
55032;BME280;40928;51.076;7.950;2024-03-23T14:16:02;96289.53;;;7.94;72.42
55032;BME280;40928;51.076;7.950;2024-03-23T14:18:28;96282.44;;;8.17;70.28
55032;BME280;40928;51.076;7.950;2024-03-23T14:21:01;96285.84;;;8.46;72.87